M.s. Sonoma — WZC8517 — position and weather

sailwx.info

Track history (hours):
 
Tides and Currents Weather Stations Pressure Air Temp Water Temp Dewpoint Dewpoint Depression Visibility Wind Speed Wind Dir Waves Ship Positions

M.s. Sonoma

Owner: GOLDEN GATE BRIDGE HWY & TRANSP DIST, LARKSPUR, CA. More information available from US FCC via Universal Licensing System and Coast Guard Vessel Documentation Center.

Last reported at 2018-Jun-19 04:51 UTC. Time now 2018-Jun-19 06:35 UTC.
Position N 37°57' W 122°31'.

Length 56 m.

Type: Passenger vessel. MMSI: 366969970.

Date/timePositionNaut miles runAvg speedWind from/ knotsBaromVisibWave heightAir tempDewpointWater temp
2018-Jun-19 04:51N 37°57' W 122°31'2 6.8
2018-Jun-19 04:30N 37°56' W 122°28'4 8.6
2018-Jun-19 04:00N 37°51' W 122°29'4 7.6
2018-Jun-19 03:30N 37°50' W 122°24'2 4.4
2018-Jun-19 03:00N 37°48' W 122°24'510.8
2018-Jun-19 02:30N 37°51' W 122°29'510.0
2018-Jun-19 02:01N 37°49' W 122°23'2 3.1
2018-Jun-19 01:31N 37°50' W 122°24'4 7.3
2018-Jun-19 01:00N 37°51' W 122°29'510.8
2018-Jun-19 00:30N 37°48' W 122°24'2 3.9
2018-Jun-19 00:01N 37°50' W 122°24'4 7.8
2018-Jun-18 23:30N 37°51' W 122°29'510.9
2018-Jun-18 23:00N 37°48' W 122°24'2 4.6
2018-Jun-18 22:30N 37°50' W 122°25'3 6.5
2018-Jun-18 22:00N 37°51' W 122°28'510.2
2018-Jun-18 21:30N 37°48' W 122°24'510.1
2018-Jun-18 21:01N 37°51' W 122°28'1 1.0
2018-Jun-18 20:30N 37°51' W 122°29'510.6
2018-Jun-18 20:00N 37°48' W 122°23'2 4.8
2018-Jun-18 19:30N 37°50' W 122°25'3 5.8
2018-Jun-18 19:00N 37°51' W 122°28'510.5
2018-Jun-18 18:30N 37°48' W 122°24'510.6
2018-Jun-18 18:00N 37°51' W 122°28'0 0.1
2018-Jun-18 17:30N 37°51' W 122°29'510.7
2018-Jun-18 17:00N 37°48' W 122°24'0 0.2
2018-Jun-18 16:30N 37°48' W 122°24'0 0.3
2018-Jun-18 16:00N 37°48' W 122°23'2 4.2
2018-Jun-18 15:30N 37°50' W 122°25'3 5.5
2018-Jun-18 15:00N 37°51' W 122°28'4 7.4
2018-Jun-18 14:30N 37°49' W 122°24'5 9.0
2018-Jun-18 14:00N 37°51' W 122°29'5 9.6
2018-Jun-18 13:28N 37°56' W 122°30'0 0.0
2018-Jun-18 02:27N 37°57' W 122°31'3 6.4
2018-Jun-18 02:00N 37°55' W 122°27'815.6
2018-Jun-18 01:29N 37°48' W 122°24'0 0.1
2018-Jun-18 01:00N 37°48' W 122°24'510.8
2018-Jun-18 00:31N 37°51' W 122°29'2 4.7
2018-Jun-18 00:00N 37°51' W 122°26'3 6.7
2018-Jun-17 23:30N 37°48' W 122°24'3 6.8
2018-Jun-17 23:01N 37°50' W 122°26'2 4.2
2018-Jun-17 22:30N 37°51' W 122°29'5 9.7
2018-Jun-17 22:00N 37°49' W 122°23'0 0.8
2018-Jun-17 21:31N 37°49' W 122°24'4 8.9
2018-Jun-17 21:00N 37°51' W 122°29'510.6
2018-Jun-17 20:30N 37°48' W 122°23'2 3.4
2018-Jun-17 20:01N 37°50' W 122°25'3 6.9
2018-Jun-17 19:30N 37°51' W 122°28'510.3
2018-Jun-17 19:00N 37°48' W 122°24'510.7
2018-Jun-17 18:30N 37°51' W 122°28'3 6.8
2018-Jun-17 18:01N 37°50' W 122°24'2 4.9
2018-Jun-17 17:30N 37°48' W 122°24'713.5
2018-Jun-17 17:00N 37°54' W 122°27'4 6.5
2018-Jun-17 16:24N 37°57' W 122°31'0 0.0
2018-Jun-17 02:45N 37°57' W 122°31'1 3.8
2018-Jun-17 02:29N 37°56' W 122°29'816.1
2018-Jun-17 02:01N 37°50' W 122°24'2 4.6
2018-Jun-17 01:31N 37°48' W 122°24'510.7
2018-Jun-17 01:00N 37°51' W 122°29'1 1.4
2018-Jun-17 00:30N 37°51' W 122°28'5 9.6
2018-Jun-17 00:00N 37°48' W 122°24'2 4.7
2018-Jun-16 23:30N 37°50' W 122°25'3 6.8
2018-Jun-16 23:00N 37°51' W 122°29'0 0.8
2018-Jun-16 22:31N 37°51' W 122°28'2 4.3
2018-Jun-16 22:00N 37°53' W 122°26'510.2
2018-Jun-16 21:29N 37°57' W 122°31'1 0.0
2018-Jun-16 04:00N 37°56' W 122°30'510.6
2018-Jun-16 03:30N 37°52' W 122°27'5 9.4
2018-Jun-16 03:00N 37°48' W 122°23'3 6.3
2018-Jun-16 02:30N 37°50' W 122°26'1 2.6
2018-Jun-16 02:01N 37°50' W 122°25'0 0.8
2018-Jun-16 01:30N 37°50' W 122°25'3 6.8
2018-Jun-16 01:00N 37°51' W 122°29'510.9
2018-Jun-16 00:30N 37°48' W 122°24'2 4.3
2018-Jun-16 00:00N 37°50' W 122°25'3 7.0
2018-Jun-15 23:30N 37°51' W 122°29'510.8
2018-Jun-15 23:00N 37°48' W 122°24'3 6.5
2018-Jun-15 22:30N 37°50' W 122°26'1 2.8
2018-Jun-15 22:00N 37°51' W 122°28'5 9.2
2018-Jun-15 21:30N 37°48' W 122°24'5 9.9
2018-Jun-15 21:00N 37°51' W 122°28'0 1.0
2018-Jun-15 20:31N 37°51' W 122°29'510.6
2018-Jun-15 20:00N 37°48' W 122°23'3 6.7
2018-Jun-15 19:30N 37°51' W 122°26'0 0.9
2018-Jun-15 19:01N 37°51' W 122°26'4 7.7
2018-Jun-15 18:30N 37°48' W 122°24'5 9.9
2018-Jun-15 18:00N 37°51' W 122°28'0 1.0
2018-Jun-15 17:30N 37°51' W 122°29'510.8
2018-Jun-15 17:00N 37°48' W 122°24'0 0.1
2018-Jun-15 16:29N 37°48' W 122°24'0 0.1
2018-Jun-15 16:00N 37°48' W 122°24'3 6.2
2018-Jun-15 15:30N 37°50' W 122°26'2 3.6
2018-Jun-15 15:00N 37°51' W 122°28'4 8.9
2018-Jun-15 14:30N 37°49' W 122°23'510.3
2018-Jun-15 14:00N 37°51' W 122°29'5 9.5
2018-Jun-15 13:30N 37°56' W 122°29'1 0.1
2018-Jun-15 03:59N 37°56' W 122°30'511.0
2018-Jun-15 03:31N 37°51' W 122°28'5 9.5
2018-Jun-15 03:00N 37°48' W 122°23'3 6.2
2018-Jun-15 02:30N 37°50' W 122°26'1 1.1
2018-Jun-15 02:01N 37°51' W 122°26'3 6.8
2018-Jun-15 01:30N 37°48' W 122°23'510.3
2018-Jun-15 01:00N 37°51' W 122°29'510.8
2018-Jun-15 00:30N 37°48' W 122°24'2 4.4
2018-Jun-15 00:00N 37°50' W 122°25'3 6.8
2018-Jun-14 23:30N 37°51' W 122°29'510.8
2018-Jun-14 23:01N 37°48' W 122°24'3 6.3
2018-Jun-14 22:30N 37°50' W 122°26'2 4.6
2018-Jun-14 22:00N 37°51' W 122°29'510.9
2018-Jun-14 21:30N 37°48' W 122°24'5 9.8
2018-Jun-14 21:00N 37°51' W 122°28'1 1.0
2018-Jun-14 20:30N 37°51' W 122°29'510.8
2018-Jun-14 20:01N 37°48' W 122°23'1 2.9
2018-Jun-14 19:30N 37°50' W 122°24'4 7.4
2018-Jun-14 19:00N 37°51' W 122°28'510.4
2018-Jun-14 18:30N 37°48' W 122°24'5 9.7
2018-Jun-14 18:00N 37°51' W 122°28'1 1.2
2018-Jun-14 17:30N 37°51' W 122°29'510.9
2018-Jun-14 17:00N 37°48' W 122°24'0 0.0
2018-Jun-14 16:29N 37°48' W 122°24'0 0.0
2018-Jun-14 16:00N 37°48' W 122°24'3 6.4
2018-Jun-14 15:31N 37°50' W 122°26'2 3.3
2018-Jun-14 15:00N 37°51' W 122°28'4 8.8
2018-Jun-14 14:31N 37°48' W 122°23'510.2
2018-Jun-14 14:00N 37°51' W 122°29'5 9.9
2018-Jun-14 13:30N 37°56' W 122°30'0 0.0
2018-Jun-14 04:06N 37°56' W 122°29'112.0
2018-Jun-14 04:00N 37°56' W 122°28'4 8.7
2018-Jun-14 03:30N 37°51' W 122°29'510.3
2018-Jun-14 02:59N 37°48' W 122°24'511.3
2018-Jun-14 02:30N 37°51' W 122°29'3 6.3
2018-Jun-14 02:00N 37°50' W 122°25'2 4.0
2018-Jun-14 01:30N 37°49' W 122°23'5 9.4
2018-Jun-14 00:59N 37°51' W 122°29'511.3
2018-Jun-14 00:30N 37°48' W 122°24'2 4.9
2018-Jun-14 00:00N 37°50' W 122°25'3 6.2
2018-Jun-13 23:30N 37°51' W 122°29'510.9
2018-Jun-13 23:00N 37°48' W 122°24'3 6.5
2018-Jun-13 22:31N 37°50' W 122°26'2 4.5
2018-Jun-13 22:00N 37°51' W 122°29'510.8
2018-Jun-13 21:30N 37°48' W 122°24'510.2
2018-Jun-13 21:00N 37°51' W 122°28'0 0.7
2018-Jun-13 20:31N 37°51' W 122°29'510.4
2018-Jun-13 20:01N 37°48' W 122°23'2 3.3
2018-Jun-13 19:30N 37°50' W 122°25'4 7.2
2018-Jun-13 19:01N 37°51' W 122°29'510.7
2018-Jun-13 18:30N 37°48' W 122°24'510.1
2018-Jun-13 18:00N 37°51' W 122°28'0 0.8
2018-Jun-13 17:30N 37°51' W 122°29'510.8
2018-Jun-13 17:00N 37°48' W 122°24'0 0.0
2018-Jun-13 16:30N 37°48' W 122°24'0 0.0
2018-Jun-13 16:00N 37°48' W 122°24'3 6.4
2018-Jun-13 15:30N 37°50' W 122°26'1 2.0
2018-Jun-13 15:00N 37°51' W 122°27'4 7.8
2018-Jun-13 14:31N 37°48' W 122°23'510.2
2018-Jun-13 14:00N 37°51' W 122°29'5 9.7
2018-Jun-13 13:28N 37°56' W 122°30'0 0.0
2018-Jun-12 04:09N 37°57' W 122°31'1 7.0
2018-Jun-12 04:00N 37°56' W 122°30'5 9.8
2018-Jun-12 03:30N 37°51' W 122°29'510.8
2018-Jun-12 03:01N 37°48' W 122°24'510.7
2018-Jun-12 02:31N 37°51' W 122°29'4 8.6
2018-Jun-12 02:00N 37°49' W 122°24'1 2.1
2018-Jun-12 01:30N 37°49' W 122°23'510.5
2018-Jun-12 01:01N 37°51' W 122°29'510.9
2018-Jun-12 00:30N 37°48' W 122°24'2 4.7
2018-Jun-12 00:00N 37°50' W 122°25'3 6.3
2018-Jun-11 23:31N 37°51' W 122°29'510.7
2018-Jun-11 23:00N 37°48' W 122°24'4 7.7
2018-Jun-11 22:30N 37°50' W 122°27'1 2.1
2018-Jun-11 22:00N 37°51' W 122°28'5 9.7
2018-Jun-11 21:30N 37°48' W 122°24'510.7
2018-Jun-11 21:01N 37°51' W 122°29'0 0.1
2018-Jun-11 20:30N 37°51' W 122°29'510.3
2018-Jun-11 20:00N 37°49' W 122°23'2 3.1
2018-Jun-11 19:31N 37°50' W 122°25'4 7.2
2018-Jun-11 19:00N 37°51' W 122°29'510.7
2018-Jun-11 18:30N 37°48' W 122°24'5 9.0
2018-Jun-11 18:00N 37°51' W 122°28'1 1.8
2018-Jun-11 17:30N 37°51' W 122°29'511.0
2018-Jun-11 17:00N 37°48' W 122°24'0 0.1
2018-Jun-11 16:30N 37°48' W 122°24'0 0.0
2018-Jun-11 16:00N 37°48' W 122°24'3 6.3
2018-Jun-11 15:30N 37°50' W 122°26'1 1.4
2018-Jun-11 15:00N 37°51' W 122°26'3 6.7
2018-Jun-11 14:30N 37°49' W 122°23'510.1
2018-Jun-11 14:01N 37°51' W 122°29'5 9.6
2018-Jun-11 13:30N 37°56' W 122°29'1 0.1
2018-Jun-11 02:16N 37°57' W 122°31'2 6.6
2018-Jun-11 02:00N 37°56' W 122°29'917.7
2018-Jun-11 01:30N 37°48' W 122°23'0 0.9
2018-Jun-11 01:01N 37°48' W 122°23'510.9
2018-Jun-11 00:30N 37°51' W 122°29'1 2.6
2018-Jun-11 00:00N 37°51' W 122°27'4 8.5
2018-Jun-10 23:30N 37°48' W 122°24'3 6.6
2018-Jun-10 23:00N 37°50' W 122°26'2 4.4
2018-Jun-10 22:31N 37°51' W 122°29'4 8.4
2018-Jun-10 22:00N 37°50' W 122°24'0 1.0
2018-Jun-10 21:30N 37°49' W 122°24'4 8.6
2018-Jun-10 21:00N 37°51' W 122°29'510.9
2018-Jun-10 20:30N 37°48' W 122°24'2 4.6
2018-Jun-10 20:00N 37°50' W 122°25'3 6.4
2018-Jun-10 19:30N 37°51' W 122°29'510.5
2018-Jun-10 18:59N 37°48' W 122°24'4 8.2
2018-Jun-10 18:30N 37°51' W 122°27'0 0.9
2018-Jun-10 18:00N 37°51' W 122°27'4 8.6
2018-Jun-10 17:30N 37°48' W 122°24'714.2
2018-Jun-10 17:00N 37°54' W 122°27'4 7.6
2018-Jun-10 16:30N 37°57' W 122°31'0 0.0
2018-Jun-10 01:36N 37°57' W 122°30'1 7.3
2018-Jun-10 01:30N 37°56' W 122°29'5 9.8
2018-Jun-10 01:01N 37°51' W 122°29'1 1.3
2018-Jun-10 00:30N 37°51' W 122°28'5 9.4
2018-Jun-10 00:00N 37°48' W 122°24'2 4.1
2018-Jun-09 23:30N 37°49' W 122°25'3 6.9
2018-Jun-09 23:00N 37°51' W 122°29'2 4.5
2018-Jun-09 22:30N 37°53' W 122°26'510.6
2018-Jun-09 22:00N 37°57' W 122°31'0 0.0
2018-Jun-09 21:30N 37°57' W 122°31'0 0.0
2018-Jun-09 21:00N 37°57' W 122°31'0 0.0
2018-Jun-09 20:30N 37°57' W 122°31'  
Track history (hours):
 
Tides and Currents Weather Stations Pressure Air Temp Water Temp Dewpoint Dewpoint Depression Visibility Wind Speed Wind Dir Waves Ship Positions

M.s. Sonoma

Owner: GOLDEN GATE BRIDGE HWY & TRANSP DIST, LARKSPUR, CA. More information available from US FCC via Universal Licensing System and Coast Guard Vessel Documentation Center.

Last reported at 2018-Jun-19 04:51 UTC. Time now 2018-Jun-19 06:35 UTC.
Position N 37°57' W 122°31'.

Length 56 m.

Type: Passenger vessel. MMSI: 366969970.

Date/timePositionNaut miles runAvg speedWind from/ knotsBaromVisibWave heightAir tempDewpointWater temp
2018-Jun-19 04:51N 37°57' W 122°31'2 6.8
2018-Jun-19 04:30N 37°56' W 122°28'4 8.6
2018-Jun-19 04:00N 37°51' W 122°29'4 7.6
2018-Jun-19 03:30N 37°50' W 122°24'2 4.4
2018-Jun-19 03:00N 37°48' W 122°24'510.8
2018-Jun-19 02:30N 37°51' W 122°29'510.0
2018-Jun-19 02:01N 37°49' W 122°23'2 3.1
2018-Jun-19 01:31N 37°50' W 122°24'4 7.3
2018-Jun-19 01:00N 37°51' W 122°29'510.8
2018-Jun-19 00:30N 37°48' W 122°24'2 3.9
2018-Jun-19 00:01N 37°50' W 122°24'4 7.8
2018-Jun-18 23:30N 37°51' W 122°29'510.9
2018-Jun-18 23:00N 37°48' W 122°24'2 4.6
2018-Jun-18 22:30N 37°50' W 122°25'3 6.5
2018-Jun-18 22:00N 37°51' W 122°28'510.2
2018-Jun-18 21:30N 37°48' W 122°24'510.1
2018-Jun-18 21:01N 37°51' W 122°28'1 1.0
2018-Jun-18 20:30N 37°51' W 122°29'510.6
2018-Jun-18 20:00N 37°48' W 122°23'2 4.8
2018-Jun-18 19:30N 37°50' W 122°25'3 5.8
2018-Jun-18 19:00N 37°51' W 122°28'510.5
2018-Jun-18 18:30N 37°48' W 122°24'510.6
2018-Jun-18 18:00N 37°51' W 122°28'0 0.1
2018-Jun-18 17:30N 37°51' W 122°29'510.7
2018-Jun-18 17:00N 37°48' W 122°24'0 0.2
2018-Jun-18 16:30N 37°48' W 122°24'0 0.3
2018-Jun-18 16:00N 37°48' W 122°23'2 4.2
2018-Jun-18 15:30N 37°50' W 122°25'3 5.5
2018-Jun-18 15:00N 37°51' W 122°28'4 7.4
2018-Jun-18 14:30N 37°49' W 122°24'5 9.0
2018-Jun-18 14:00N 37°51' W 122°29'5 9.6
2018-Jun-18 13:28N 37°56' W 122°30'0 0.0
2018-Jun-18 02:27N 37°57' W 122°31'3 6.4
2018-Jun-18 02:00N 37°55' W 122°27'815.6
2018-Jun-18 01:29N 37°48' W 122°24'0 0.1
2018-Jun-18 01:00N 37°48' W 122°24'510.8
2018-Jun-18 00:31N 37°51' W 122°29'2 4.7
2018-Jun-18 00:00N 37°51' W 122°26'3 6.7
2018-Jun-17 23:30N 37°48' W 122°24'3 6.8
2018-Jun-17 23:01N 37°50' W 122°26'2 4.2
2018-Jun-17 22:30N 37°51' W 122°29'5 9.7
2018-Jun-17 22:00N 37°49' W 122°23'0 0.8
2018-Jun-17 21:31N 37°49' W 122°24'4 8.9
2018-Jun-17 21:00N 37°51' W 122°29'510.6
2018-Jun-17 20:30N 37°48' W 122°23'2 3.4
2018-Jun-17 20:01N 37°50' W 122°25'3 6.9
2018-Jun-17 19:30N 37°51' W 122°28'510.3
2018-Jun-17 19:00N 37°48' W 122°24'510.7
2018-Jun-17 18:30N 37°51' W 122°28'3 6.8
2018-Jun-17 18:01N 37°50' W 122°24'2 4.9
2018-Jun-17 17:30N 37°48' W 122°24'713.5
2018-Jun-17 17:00N 37°54' W 122°27'4 6.5
2018-Jun-17 16:24N 37°57' W 122°31'0 0.0
2018-Jun-17 02:45N 37°57' W 122°31'1 3.8
2018-Jun-17 02:29N 37°56' W 122°29'816.1
2018-Jun-17 02:01N 37°50' W 122°24'2 4.6
2018-Jun-17 01:31N 37°48' W 122°24'510.7
2018-Jun-17 01:00N 37°51' W 122°29'1 1.4
2018-Jun-17 00:30N 37°51' W 122°28'5 9.6
2018-Jun-17 00:00N 37°48' W 122°24'2 4.7
2018-Jun-16 23:30N 37°50' W 122°25'3 6.8
2018-Jun-16 23:00N 37°51' W 122°29'0 0.8
2018-Jun-16 22:31N 37°51' W 122°28'2 4.3
2018-Jun-16 22:00N 37°53' W 122°26'510.2
2018-Jun-16 21:29N 37°57' W 122°31'1 0.0
2018-Jun-16 04:00N 37°56' W 122°30'510.6
2018-Jun-16 03:30N 37°52' W 122°27'5 9.4
2018-Jun-16 03:00N 37°48' W 122°23'3 6.3
2018-Jun-16 02:30N 37°50' W 122°26'1 2.6
2018-Jun-16 02:01N 37°50' W 122°25'0 0.8
2018-Jun-16 01:30N 37°50' W 122°25'3 6.8
2018-Jun-16 01:00N 37°51' W 122°29'510.9
2018-Jun-16 00:30N 37°48' W 122°24'2 4.3
2018-Jun-16 00:00N 37°50' W 122°25'3 7.0
2018-Jun-15 23:30N 37°51' W 122°29'510.8
2018-Jun-15 23:00N 37°48' W 122°24'3 6.5
2018-Jun-15 22:30N 37°50' W 122°26'1 2.8
2018-Jun-15 22:00N 37°51' W 122°28'5 9.2
2018-Jun-15 21:30N 37°48' W 122°24'5 9.9
2018-Jun-15 21:00N 37°51' W 122°28'0 1.0
2018-Jun-15 20:31N 37°51' W 122°29'510.6
2018-Jun-15 20:00N 37°48' W 122°23'3 6.7
2018-Jun-15 19:30N 37°51' W 122°26'0 0.9
2018-Jun-15 19:01N 37°51' W 122°26'4 7.7
2018-Jun-15 18:30N 37°48' W 122°24'5 9.9
2018-Jun-15 18:00N 37°51' W 122°28'0 1.0
2018-Jun-15 17:30N 37°51' W 122°29'510.8
2018-Jun-15 17:00N 37°48' W 122°24'0 0.1
2018-Jun-15 16:29N 37°48' W 122°24'0 0.1
2018-Jun-15 16:00N 37°48' W 122°24'3 6.2
2018-Jun-15 15:30N 37°50' W 122°26'2 3.6
2018-Jun-15 15:00N 37°51' W 122°28'4 8.9
2018-Jun-15 14:30N 37°49' W 122°23'510.3
2018-Jun-15 14:00N 37°51' W 122°29'5 9.5
2018-Jun-15 13:30N 37°56' W 122°29'1 0.1
2018-Jun-15 03:59N 37°56' W 122°30'511.0
2018-Jun-15 03:31N 37°51' W 122°28'5 9.5
2018-Jun-15 03:00N 37°48' W 122°23'3 6.2
2018-Jun-15 02:30N 37°50' W 122°26'1 1.1
2018-Jun-15 02:01N 37°51' W 122°26'3 6.8
2018-Jun-15 01:30N 37°48' W 122°23'510.3
2018-Jun-15 01:00N 37°51' W 122°29'510.8
2018-Jun-15 00:30N 37°48' W 122°24'2 4.4
2018-Jun-15 00:00N 37°50' W 122°25'3 6.8
2018-Jun-14 23:30N 37°51' W 122°29'510.8
2018-Jun-14 23:01N 37°48' W 122°24'3 6.3
2018-Jun-14 22:30N 37°50' W 122°26'2 4.6
2018-Jun-14 22:00N 37°51' W 122°29'510.9
2018-Jun-14 21:30N 37°48' W 122°24'5 9.8
2018-Jun-14 21:00N 37°51' W 122°28'1 1.0
2018-Jun-14 20:30N 37°51' W 122°29'510.8
2018-Jun-14 20:01N 37°48' W 122°23'1 2.9
2018-Jun-14 19:30N 37°50' W 122°24'4 7.4
2018-Jun-14 19:00N 37°51' W 122°28'510.4
2018-Jun-14 18:30N 37°48' W 122°24'5 9.7
2018-Jun-14 18:00N 37°51' W 122°28'1 1.2
2018-Jun-14 17:30N 37°51' W 122°29'510.9
2018-Jun-14 17:00N 37°48' W 122°24'0 0.0
2018-Jun-14 16:29N 37°48' W 122°24'0 0.0
2018-Jun-14 16:00N 37°48' W 122°24'3 6.4
2018-Jun-14 15:31N 37°50' W 122°26'2 3.3
2018-Jun-14 15:00N 37°51' W 122°28'4 8.8
2018-Jun-14 14:31N 37°48' W 122°23'510.2
2018-Jun-14 14:00N 37°51' W 122°29'5 9.9
2018-Jun-14 13:30N 37°56' W 122°30'0 0.0
2018-Jun-14 04:06N 37°56' W 122°29'112.0
2018-Jun-14 04:00N 37°56' W 122°28'4 8.7
2018-Jun-14 03:30N 37°51' W 122°29'510.3
2018-Jun-14 02:59N 37°48' W 122°24'511.3
2018-Jun-14 02:30N 37°51' W 122°29'3 6.3
2018-Jun-14 02:00N 37°50' W 122°25'2 4.0
2018-Jun-14 01:30N 37°49' W 122°23'5 9.4
2018-Jun-14 00:59N 37°51' W 122°29'511.3
2018-Jun-14 00:30N 37°48' W 122°24'2 4.9
2018-Jun-14 00:00N 37°50' W 122°25'3 6.2
2018-Jun-13 23:30N 37°51' W 122°29'510.9
2018-Jun-13 23:00N 37°48' W 122°24'3 6.5
2018-Jun-13 22:31N 37°50' W 122°26'2 4.5
2018-Jun-13 22:00N 37°51' W 122°29'510.8
2018-Jun-13 21:30N 37°48' W 122°24'510.2
2018-Jun-13 21:00N 37°51' W 122°28'0 0.7
2018-Jun-13 20:31N 37°51' W 122°29'510.4
2018-Jun-13 20:01N 37°48' W 122°23'2 3.3
2018-Jun-13 19:30N 37°50' W 122°25'4 7.2
2018-Jun-13 19:01N 37°51' W 122°29'510.7
2018-Jun-13 18:30N 37°48' W 122°24'510.1
2018-Jun-13 18:00N 37°51' W 122°28'0 0.8
2018-Jun-13 17:30N 37°51' W 122°29'510.8
2018-Jun-13 17:00N 37°48' W 122°24'0 0.0
2018-Jun-13 16:30N 37°48' W 122°24'0 0.0
2018-Jun-13 16:00N 37°48' W 122°24'3 6.4
2018-Jun-13 15:30N 37°50' W 122°26'1 2.0
2018-Jun-13 15:00N 37°51' W 122°27'4 7.8
2018-Jun-13 14:31N 37°48' W 122°23'510.2
2018-Jun-13 14:00N 37°51' W 122°29'5 9.7
2018-Jun-13 13:28N 37°56' W 122°30'0 0.0
2018-Jun-12 04:09N 37°57' W 122°31'1 7.0
2018-Jun-12 04:00N 37°56' W 122°30'5 9.8
2018-Jun-12 03:30N 37°51' W 122°29'510.8
2018-Jun-12 03:01N 37°48' W 122°24'510.7
2018-Jun-12 02:31N 37°51' W 122°29'4 8.6
2018-Jun-12 02:00N 37°49' W 122°24'1 2.1
2018-Jun-12 01:30N 37°49' W 122°23'510.5
2018-Jun-12 01:01N 37°51' W 122°29'510.9
2018-Jun-12 00:30N 37°48' W 122°24'2 4.7
2018-Jun-12 00:00N 37°50' W 122°25'3 6.3
2018-Jun-11 23:31N 37°51' W 122°29'510.7
2018-Jun-11 23:00N 37°48' W 122°24'4 7.7
2018-Jun-11 22:30N 37°50' W 122°27'1 2.1
2018-Jun-11 22:00N 37°51' W 122°28'5 9.7
2018-Jun-11 21:30N 37°48' W 122°24'510.7
2018-Jun-11 21:01N 37°51' W 122°29'0 0.1
2018-Jun-11 20:30N 37°51' W 122°29'510.3
2018-Jun-11 20:00N 37°49' W 122°23'2 3.1
2018-Jun-11 19:31N 37°50' W 122°25'4 7.2
2018-Jun-11 19:00N 37°51' W 122°29'510.7
2018-Jun-11 18:30N 37°48' W 122°24'5 9.0
2018-Jun-11 18:00N 37°51' W 122°28'1 1.8
2018-Jun-11 17:30N 37°51' W 122°29'511.0
2018-Jun-11 17:00N 37°48' W 122°24'0 0.1
2018-Jun-11 16:30N 37°48' W 122°24'0 0.0
2018-Jun-11 16:00N 37°48' W 122°24'3 6.3
2018-Jun-11 15:30N 37°50' W 122°26'1 1.4
2018-Jun-11 15:00N 37°51' W 122°26'3 6.7
2018-Jun-11 14:30N 37°49' W 122°23'510.1
2018-Jun-11 14:01N 37°51' W 122°29'5 9.6
2018-Jun-11 13:30N 37°56' W 122°29'1 0.1
2018-Jun-11 02:16N 37°57' W 122°31'2 6.6
2018-Jun-11 02:00N 37°56' W 122°29'917.7
2018-Jun-11 01:30N 37°48' W 122°23'0 0.9
2018-Jun-11 01:01N 37°48' W 122°23'510.9
2018-Jun-11 00:30N 37°51' W 122°29'1 2.6
2018-Jun-11 00:00N 37°51' W 122°27'4 8.5
2018-Jun-10 23:30N 37°48' W 122°24'3 6.6
2018-Jun-10 23:00N 37°50' W 122°26'2 4.4
2018-Jun-10 22:31N 37°51' W 122°29'4 8.4
2018-Jun-10 22:00N 37°50' W 122°24'0 1.0
2018-Jun-10 21:30N 37°49' W 122°24'4 8.6
2018-Jun-10 21:00N 37°51' W 122°29'510.9
2018-Jun-10 20:30N 37°48' W 122°24'2 4.6
2018-Jun-10 20:00N 37°50' W 122°25'3 6.4
2018-Jun-10 19:30N 37°51' W 122°29'510.5
2018-Jun-10 18:59N 37°48' W 122°24'4 8.2
2018-Jun-10 18:30N 37°51' W 122°27'0 0.9
2018-Jun-10 18:00N 37°51' W 122°27'4 8.6
2018-Jun-10 17:30N 37°48' W 122°24'714.2
2018-Jun-10 17:00N 37°54' W 122°27'4 7.6
2018-Jun-10 16:30N 37°57' W 122°31'0 0.0
2018-Jun-10 01:36N 37°57' W 122°30'1 7.3
2018-Jun-10 01:30N 37°56' W 122°29'5 9.8
2018-Jun-10 01:01N 37°51' W 122°29'1 1.3
2018-Jun-10 00:30N 37°51' W 122°28'5 9.4
2018-Jun-10 00:00N 37°48' W 122°24'2 4.1
2018-Jun-09 23:30N 37°49' W 122°25'3 6.9
2018-Jun-09 23:00N 37°51' W 122°29'2 4.5
2018-Jun-09 22:30N 37°53' W 122°26'510.6
2018-Jun-09 22:00N 37°57' W 122°31'0 0.0
2018-Jun-09 21:30N 37°57' W 122°31'0 0.0
2018-Jun-09 21:00N 37°57' W 122°31'0 0.0
2018-Jun-09 20:30N 37°57' W 122°31'  

Dump ship's entire track history